Hovedside
METAR-TAF:

METAR-TAF

Lufthavner :

Rosh Pinna, Israel

breddegrad: 32-58-48N, lengdegrad: 035-34-12E, høyde over havet: 281 m

Gjeldene værobservasjon

Denne rapporten ble laget for 4 timer og 56 minutter siden, klokken 15:50 UTC
Vind 3 kt fra skiftende retning
Temperatur 16°C
Luftfuktighet 51%
Trykk 1019 hPa
Sikt 10 km eller mer
ingen skyer under 1500 m og ingen bygeskyer

METAR: LLIB 281550Z AUTO VRB03KT CAVOK 16/06 Q1019

Tid: 22:46 (20:46 UTC)

Varsel

Denne rapporten ble laget for 9 timer og 34 minutter siden, klokken 11:12 UTC
Varsel gyldig fra 28. klokken 12 UTC til 29. klokken 12 UTC
Vind 7 kt fra Sør-sørøst
Sikt 10 km eller mer
ingen skyer under 1500 m og ingen bygeskyer
Blir
fra 28. klokken 13 UTC til 28. klokken 15 UTC
Vind 4 kt fra skiftende retning
Blir
fra 29. klokken 06 UTC til 29. klokken 08 UTC
Vind 7 kt fra Sør-sørøst

TAF: LLIB 281112Z 2812/2912 15007KT CAVOK BECMG 2813/2815 VRB04KT BECMG 2906/2908 16007KT TX25/2812Z TN10/2904Z

Værobservasjoner og værvarsel for over 4000 flyplasser (METAR- og TAF-rapporter).

Tilgjengelige stasjoner er representert av de røde og gule prikkene på kartet.

Hold musepekeren over prikken for å se navnet på stasjonen.

Klikk så for å se værobservasjoner og -varsler.

For å forandre kartet kan du klikke på den grønne knappen med svart kryss for å zoome inn, på den grønne knappen med strek for å zoome ut, eller på de grønne pilene for å se tilstøtende kart.


METAR-TAF: